createdAt,value
2023-04-24T00:00:28.554Z,40.88
2023-04-24T00:03:02.296Z,40.26
2023-04-24T00:05:36.164Z,41.06
2023-04-24T00:08:04.344Z,41.91
2023-04-24T00:10:31.919Z,42.99
2023-04-24T00:12:59.622Z,43.35
2023-04-24T00:15:27.351Z,44.04
2023-04-24T00:18:03.625Z,43.89
2023-04-24T00:20:33.654Z,44.54
2023-04-24T00:23:00.915Z,44.85
2023-04-24T00:25:28.254Z,47.92
2023-04-24T00:27:55.943Z,46.41
2023-04-24T00:30:23.635Z,49.00
2023-04-24T00:32:51.012Z,47.70
2023-04-24T00:35:20.944Z,47.15
2023-04-24T00:37:48.599Z,47.04
2023-04-24T00:40:16.495Z,45.47
2023-04-24T00:42:45.056Z,45.26
2023-04-24T00:45:13.232Z,44.84
2023-04-24T00:47:40.736Z,44.27
2023-04-24T00:50:08.600Z,44.71
2023-04-24T00:52:36.283Z,45.05
2023-04-24T00:55:05.013Z,43.94
2023-04-24T00:57:33.304Z,44.58
2023-04-24T01:00:05.257Z,45.83
2023-04-24T01:02:35.606Z,44.91
2023-04-24T01:05:03.889Z,44.75
2023-04-24T01:07:31.352Z,45.12
2023-04-24T01:09:59.136Z,44.53
2023-04-24T01:12:26.532Z,45.08
2023-04-24T01:14:53.864Z,45.42
2023-04-24T01:17:22.258Z,45.78
2023-04-24T01:19:49.692Z,45.27
2023-04-24T01:22:23.042Z,46.04
2023-04-24T01:24:51.264Z,44.80
2023-04-24T01:27:18.710Z,46.11
2023-04-24T01:29:46.456Z,46.40
2023-04-24T01:32:14.357Z,45.79
2023-04-24T01:34:42.134Z,47.59
2023-04-24T01:37:09.748Z,47.59
2023-04-24T01:39:37.397Z,47.95
2023-04-24T01:42:05.385Z,49.63
2023-04-24T01:44:33.268Z,48.98
2023-04-24T01:47:03.223Z,48.65
2023-04-24T01:49:30.970Z,49.56
2023-04-24T01:51:58.372Z,48.81
2023-04-24T01:54:29.116Z,49.56
2023-04-24T01:56:58.302Z,48.81
2023-04-24T01:59:26.083Z,49.13
2023-04-24T02:01:53.552Z,49.31
2023-04-24T02:04:21.555Z,50.51
2023-04-24T02:06:50.278Z,50.12
2023-04-24T02:09:18.309Z,50.20
2023-04-24T02:11:45.859Z,50.54
2023-04-24T02:14:14.407Z,50.49
2023-04-24T02:16:41.949Z,51.39
2023-04-24T02:19:10.138Z,52.02
2023-04-24T02:21:38.058Z,52.47
2023-04-24T02:24:05.368Z,52.50
2023-04-24T02:26:32.877Z,52.47
2023-04-24T02:29:01.030Z,52.64
2023-04-24T02:31:28.875Z,52.23
2023-04-24T02:33:56.369Z,51.84
2023-04-24T02:36:24.290Z,51.67
2023-04-24T02:38:58.455Z,51.89
2023-04-24T02:41:26.218Z,52.24
2023-04-24T02:43:53.988Z,52.20
2023-04-24T02:46:21.455Z,52.10
2023-04-24T02:48:50.262Z,52.55
2023-04-24T02:51:17.804Z,52.19
2023-04-24T02:53:45.361Z,51.88
2023-04-24T02:56:13.444Z,52.11
2023-04-24T02:58:41.036Z,52.26
2023-04-24T03:01:08.940Z,52.82
2023-04-24T03:03:38.340Z,52.58
2023-04-24T03:06:09.187Z,52.44
2023-04-24T03:08:37.092Z,52.68
2023-04-24T03:11:04.963Z,52.20
2023-04-24T03:13:32.682Z,52.88
2023-04-24T03:16:01.218Z,52.13
2023-04-24T03:18:31.131Z,52.17
2023-04-24T03:20:59.785Z,52.63
2023-04-24T03:23:27.955Z,52.58
2023-04-24T03:25:56.163Z,52.50
2023-04-24T03:28:26.187Z,52.90
2023-04-24T03:30:54.653Z,53.32
2023-04-24T03:33:28.659Z,53.56
2023-04-24T03:35:56.988Z,53.18
2023-04-24T03:38:24.954Z,53.33
2023-04-24T03:40:54.986Z,52.77
2023-04-24T03:43:23.553Z,53.32
2023-04-24T03:45:51.295Z,53.74
2023-04-24T03:48:44.055Z,53.01
2023-04-24T03:51:35.160Z,52.62
2023-04-24T03:54:20.238Z,52.40
2023-04-24T03:57:11.191Z,52.81
2023-04-24T04:00:12.133Z,54.62
2023-04-24T04:03:04.850Z,54.36
2023-04-24T04:05:47.443Z,54.64
2023-04-24T04:08:37.423Z,55.12
2023-04-24T04:11:22.337Z,55.06
2023-04-24T04:14:05.020Z,54.75
2023-04-24T04:16:49.172Z,54.68
2023-04-24T04:19:43.523Z,56.36
2023-04-24T04:22:20.573Z,55.85
2023-04-24T04:24:49.642Z,55.37
2023-04-24T04:27:29.576Z,55.55
2023-04-24T04:29:58.108Z,55.21
2023-04-24T04:32:27.291Z,54.97
2023-04-24T04:34:56.246Z,54.94
2023-04-24T04:37:36.123Z,55.62
2023-04-24T04:40:33.847Z,55.61
2023-04-24T04:43:02.538Z,55.08
2023-04-24T04:45:31.790Z,54.75
2023-04-24T04:48:25.094Z,55.34
2023-04-24T04:51:18.631Z,55.04
2023-04-24T04:54:01.168Z,55.02
2023-04-24T04:56:47.767Z,55.34
2023-04-24T04:59:19.121Z,54.41
2023-04-24T05:01:49.635Z,55.07
2023-04-24T05:04:19.519Z,55.82
2023-04-24T05:06:49.513Z,55.82
2023-04-24T05:09:20.394Z,55.81
2023-04-24T05:11:48.450Z,54.75
2023-04-24T05:14:22.056Z,55.30
2023-04-24T05:16:52.491Z,55.14
2023-04-24T05:19:22.750Z,54.77
2023-04-24T05:21:52.307Z,54.25
2023-04-24T05:24:21.130Z,54.93
2023-04-24T05:27:29.206Z,54.43
2023-04-24T05:30:11.159Z,54.04
2023-04-24T05:32:43.151Z,54.33
2023-04-24T05:35:31.234Z,54.82
2023-04-24T05:38:26.361Z,55.80
2023-04-24T05:41:08.152Z,56.82
2023-04-24T05:43:50.548Z,55.59
2023-04-24T05:46:45.158Z,54.66
2023-04-24T05:49:31.121Z,54.27
2023-04-24T05:52:22.203Z,54.68
2023-04-24T05:55:19.652Z,54.59
2023-04-24T06:01:40.704Z,54.77
2023-04-24T06:04:23.349Z,54.31
2023-04-24T06:07:05.104Z,55.62
2023-04-24T06:09:57.714Z,54.02
2023-04-24T06:12:51.871Z,54.59
2023-04-24T06:15:48.372Z,56.04
2023-04-24T06:18:30.867Z,57.78
2023-04-24T06:21:15.607Z,57.33
2023-04-24T06:24:11.950Z,58.21
2023-04-24T06:26:43.063Z,57.99
2023-04-24T06:29:10.977Z,58.15
2023-04-24T06:31:39.364Z,58.80
2023-04-24T06:34:07.572Z,58.76
2023-04-24T06:36:36.238Z,57.75
2023-04-24T06:39:05.085Z,58.63
2023-04-24T06:41:34.211Z,57.93
2023-04-24T06:44:03.986Z,58.65
2023-04-24T06:46:33.372Z,58.18
2023-04-24T06:49:02.282Z,58.76
2023-04-24T06:51:29.985Z,59.30
2023-04-24T06:53:58.152Z,59.09
2023-04-24T06:56:26.487Z,59.48
2023-04-24T06:58:55.074Z,59.21
2023-04-24T07:01:23.134Z,58.09
2023-04-24T07:03:50.787Z,57.23
2023-04-24T07:06:23.061Z,56.32
2023-04-24T07:08:52.513Z,58.06
2023-04-24T07:11:21.597Z,58.25
2023-04-24T07:13:51.472Z,57.98
2023-04-24T07:16:27.001Z,58.20
2023-04-24T07:18:58.261Z,59.53
2023-04-24T07:21:28.347Z,60.21
2023-04-24T07:23:56.041Z,59.54
2023-04-24T07:26:25.632Z,58.51
2023-04-24T07:28:59.052Z,58.44
2023-04-24T07:31:31.544Z,57.94
2023-04-24T07:34:02.280Z,57.89
2023-04-24T07:36:31.057Z,57.75
2023-04-24T07:39:00.456Z,56.98
2023-04-24T07:41:29.108Z,57.46
2023-04-24T07:43:58.721Z,56.65
2023-04-24T07:46:31.162Z,56.66
2023-04-24T07:49:12.495Z,55.81
2023-04-24T07:51:42.927Z,55.48
2023-04-24T07:54:11.642Z,56.96
2023-04-24T07:56:42.163Z,55.94
2023-04-24T07:59:14.130Z,55.46
2023-04-24T08:01:46.622Z,54.23
2023-04-24T08:04:16.810Z,55.10
2023-04-24T08:06:47.108Z,54.85
2023-04-24T08:09:20.847Z,53.93
2023-04-24T08:11:52.989Z,53.83
2023-04-24T08:14:21.042Z,54.07
2023-04-24T08:16:50.433Z,53.76
2023-04-24T08:19:18.224Z,54.10
2023-04-24T08:21:48.139Z,54.12
2023-04-24T08:24:20.164Z,54.89
2023-04-24T08:26:51.497Z,53.92
2023-04-24T08:29:25.783Z,53.35
2023-04-24T08:31:55.961Z,53.17
2023-04-24T08:37:03.185Z,52.47
2023-04-24T08:39:32.139Z,51.60
2023-04-24T08:42:06.573Z,51.17
2023-04-24T08:44:36.632Z,51.15
2023-04-24T08:47:06.109Z,50.93
2023-04-24T08:49:34.581Z,50.72
2023-04-24T08:52:02.941Z,50.58
2023-04-24T08:54:30.594Z,50.23
2023-04-24T08:57:04.870Z,49.05
2023-04-24T08:59:37.127Z,50.09
2023-04-24T09:02:05.751Z,49.90
2023-04-24T09:04:34.899Z,46.58
2023-04-24T09:07:02.987Z,47.53
2023-04-24T09:09:32.191Z,47.54
2023-04-24T09:11:59.946Z,47.17
2023-04-24T09:14:30.105Z,46.91
2023-04-24T09:17:00.269Z,46.39
2023-04-24T09:19:28.884Z,46.16
2023-04-24T09:21:59.143Z,46.08
2023-04-24T09:24:30.408Z,43.93
2023-04-24T09:27:06.285Z,45.09
2023-04-24T09:29:35.174Z,45.72
2023-04-24T09:32:19.413Z,45.32
2023-04-24T09:34:47.629Z,44.55
2023-04-24T09:37:33.094Z,43.48
2023-04-24T09:40:23.781Z,45.51
2023-04-24T09:42:52.833Z,45.63
2023-04-24T09:45:22.382Z,46.09
2023-04-24T09:47:54.228Z,45.24
2023-04-24T09:50:22.876Z,46.53
2023-04-24T09:52:59.523Z,45.38
2023-04-24T09:55:28.737Z,46.20
2023-04-24T09:57:58.174Z,45.51
2023-04-24T10:00:31.712Z,44.50
2023-04-24T10:03:05.096Z,46.05
2023-04-24T10:05:33.698Z,47.08
2023-04-24T10:08:12.144Z,47.00
2023-04-24T10:10:44.210Z,45.91
2023-04-24T10:13:16.596Z,46.06
2023-04-24T10:15:48.620Z,46.53
2023-04-24T10:18:16.766Z,46.37
2023-04-24T10:20:46.254Z,46.02
2023-04-24T10:23:17.075Z,45.51
2023-04-24T10:25:48.785Z,44.68
2023-04-24T10:28:17.706Z,45.50
2023-04-24T10:30:48.164Z,45.55
2023-04-24T10:33:16.687Z,45.82
2023-04-24T10:35:46.554Z,45.44
2023-04-24T10:38:27.242Z,44.19
2023-04-24T10:40:59.623Z,44.89
2023-04-24T10:43:34.135Z,45.29
2023-04-24T10:46:06.087Z,44.57
2023-04-24T10:48:44.067Z,45.56
2023-04-24T10:53:54.262Z,45.79
2023-04-24T10:56:23.280Z,45.93
2023-04-24T10:58:54.416Z,45.21
2023-04-24T11:01:31.159Z,43.92
2023-04-24T11:04:04.109Z,44.57
2023-04-24T11:06:37.165Z,44.56
2023-04-24T11:09:13.975Z,43.48
2023-04-24T11:11:48.124Z,42.60
2023-04-24T11:14:17.191Z,41.14
2023-04-24T11:16:48.620Z,40.30
2023-04-24T11:19:20.328Z,40.65
2023-04-24T11:21:50.926Z,40.18
2023-04-24T11:24:27.384Z,40.89
2023-04-24T11:27:07.968Z,40.17
2023-04-24T11:29:44.741Z,40.82
2023-04-24T11:32:27.658Z,40.13
2023-04-24T11:34:57.620Z,40.62
2023-04-24T11:37:30.899Z,39.64
2023-04-24T11:40:00.102Z,38.87
2023-04-24T11:42:41.360Z,39.03
2023-04-24T11:45:10.766Z,38.51
2023-04-24T11:47:44.074Z,37.68
2023-04-24T11:50:18.341Z,37.48
2023-04-24T11:52:50.304Z,37.86
2023-04-24T11:55:22.263Z,36.47
2023-04-24T11:57:58.364Z,35.82
2023-04-24T12:00:30.278Z,35.02
2023-04-24T12:03:12.285Z,35.67
2023-04-24T12:05:42.361Z,36.13
2023-04-24T12:08:27.988Z,35.57
2023-04-24T12:11:00.574Z,35.78
2023-04-24T12:13:38.149Z,35.56
2023-04-24T12:16:29.426Z,35.36
2023-04-24T12:19:13.205Z,35.69
2023-04-24T12:22:51.501Z,36.04
2023-04-24T12:25:45.187Z,36.78
2023-04-24T12:28:36.133Z,37.20
2023-04-24T12:31:34.165Z,36.74
2023-04-24T12:34:07.831Z,36.76
2023-04-24T12:37:13.162Z,37.51
2023-04-24T12:40:09.851Z,37.32
2023-04-24T12:43:03.212Z,35.57
2023-04-24T12:45:54.300Z,35.61
2023-04-24T12:48:43.732Z,36.93
2023-04-24T12:51:44.718Z,37.45
2023-04-24T12:54:27.438Z,38.40
2023-04-24T12:57:23.359Z,39.06
2023-04-24T13:00:13.289Z,38.70
2023-04-24T13:03:15.389Z,38.25
2023-04-24T13:05:55.748Z,37.71
2023-04-24T13:08:52.665Z,38.62
2023-04-24T13:11:45.919Z,38.89
2023-04-24T13:14:38.589Z,39.58
2023-04-24T13:17:32.925Z,40.75
2023-04-24T13:22:52.311Z,42.08
2023-04-24T13:25:24.713Z,41.71
2023-04-24T13:27:53.693Z,42.74
2023-04-24T13:30:27.109Z,45.04
2023-04-24T13:32:58.986Z,44.69
2023-04-24T13:35:30.931Z,48.71
2023-04-24T13:38:11.287Z,48.82
2023-04-24T13:40:47.197Z,51.46
2023-04-24T13:43:18.844Z,52.43
2023-04-24T13:45:48.137Z,54.51
2023-04-24T13:48:17.916Z,57.65
2023-04-24T13:50:50.232Z,55.89
2023-04-24T13:53:19.507Z,56.75
2023-04-24T13:55:54.108Z,57.77
2023-04-24T13:58:30.097Z,57.81
2023-04-24T14:01:02.596Z,57.53
2023-04-24T14:03:45.277Z,58.33
2023-04-24T14:06:13.774Z,58.70
2023-04-24T14:08:45.114Z,59.17
2023-04-24T14:11:14.444Z,59.16
2023-04-24T14:13:45.017Z,59.28
2023-04-24T14:16:20.167Z,60.32
2023-04-24T14:18:50.115Z,59.93
2023-04-24T14:21:25.563Z,59.66
2023-04-24T14:23:54.060Z,61.56
2023-04-24T14:26:28.296Z,61.93
2023-04-24T14:29:11.656Z,60.48
2023-04-24T14:31:44.471Z,61.87
2023-04-24T14:34:15.096Z,60.51
2023-04-24T14:36:51.840Z,60.29
2023-04-24T14:39:25.270Z,60.80
2023-04-24T14:41:52.980Z,59.86
2023-04-24T14:44:24.136Z,60.92
2023-04-24T14:46:53.140Z,59.77
2023-04-24T14:49:21.763Z,61.12
2023-04-24T14:51:58.242Z,60.53
2023-04-24T14:54:28.199Z,62.30
2023-04-24T14:57:03.420Z,60.51
2023-04-24T15:02:16.835Z,61.37
2023-04-24T15:04:48.329Z,60.69
2023-04-24T15:07:19.335Z,60.98
2023-04-24T15:09:51.198Z,61.79
2023-04-24T15:12:21.249Z,60.72
2023-04-24T15:14:53.548Z,61.15
2023-04-24T15:17:24.202Z,60.23
2023-04-24T15:19:57.207Z,60.01
2023-04-24T15:22:25.430Z,60.83
2023-04-24T15:25:05.379Z,60.45
2023-04-24T15:27:42.253Z,59.69
2023-04-24T15:30:18.213Z,59.58
2023-04-24T15:32:47.375Z,60.07
2023-04-24T15:37:56.667Z,61.21
2023-04-24T15:40:30.948Z,60.90
2023-04-24T15:43:04.114Z,60.19
2023-04-24T15:45:35.295Z,61.59
2023-04-24T15:48:03.689Z,60.93
2023-04-24T15:50:35.736Z,60.68
2023-04-24T15:53:11.553Z,60.27
2023-04-24T15:55:40.162Z,57.75
2023-04-24T15:58:16.472Z,59.61
2023-04-24T16:00:45.936Z,58.91
2023-04-24T16:03:15.402Z,59.28
2023-04-24T16:05:43.460Z,59.03
2023-04-24T16:11:01.116Z,58.94
2023-04-24T16:13:32.091Z,60.47
2023-04-24T16:16:01.658Z,58.85
2023-04-24T16:18:30.569Z,58.37
2023-04-24T16:21:06.136Z,58.88
2023-04-24T16:23:39.166Z,60.41
2023-04-24T16:26:08.356Z,60.76
2023-04-24T16:28:46.403Z,59.47
2023-04-24T16:31:33.315Z,60.09
2023-04-24T16:34:01.276Z,61.00
2023-04-24T16:36:39.108Z,59.71
2023-04-24T16:39:11.145Z,61.49
2023-04-24T16:41:47.008Z,61.16
2023-04-24T16:44:15.617Z,59.53
2023-04-24T16:46:52.238Z,58.88
2023-04-24T16:49:21.710Z,59.46
2023-04-24T16:51:50.058Z,59.02
2023-04-24T16:54:19.406Z,59.46
2023-04-24T16:56:50.728Z,60.06
2023-04-24T16:59:26.170Z,60.43
2023-04-24T17:02:04.260Z,60.07
2023-04-24T17:04:35.905Z,59.36
2023-04-24T17:07:17.714Z,59.54
2023-04-24T17:09:50.155Z,59.71
2023-04-24T17:12:20.143Z,60.21
2023-04-24T17:14:49.251Z,60.91
2023-04-24T17:17:25.608Z,59.88
2023-04-24T17:20:21.370Z,59.72
2023-04-24T17:22:57.168Z,59.09
2023-04-24T17:25:35.215Z,60.12
2023-04-24T17:28:03.948Z,59.99
2023-04-24T17:33:09.701Z,61.12
2023-04-24T17:35:39.601Z,61.66
2023-04-24T17:40:47.805Z,62.62
2023-04-24T17:43:22.759Z,62.00
2023-04-24T17:46:01.159Z,61.58
2023-04-24T17:51:12.926Z,61.73
2023-04-24T17:53:44.089Z,61.85
2023-04-24T17:56:16.040Z,61.63
2023-04-24T17:58:52.563Z,61.01
2023-04-24T18:04:00.731Z,60.75
2023-04-24T18:06:34.860Z,61.79
2023-04-24T18:12:02.136Z,62.47
2023-04-24T18:14:35.278Z,61.70
2023-04-24T18:17:06.337Z,61.56
2023-04-24T18:19:46.160Z,60.24
2023-04-24T18:22:22.154Z,57.91
2023-04-24T18:24:54.629Z,58.47
2023-04-24T18:30:17.315Z,57.26
2023-04-24T18:32:45.906Z,58.33
2023-04-24T18:35:23.738Z,58.89
2023-04-24T18:40:26.412Z,59.64
2023-04-24T18:42:57.636Z,60.93
2023-04-24T18:45:27.147Z,61.23
2023-04-24T18:48:05.297Z,59.92
2023-04-24T18:50:41.111Z,58.98
2023-04-24T18:56:02.311Z,58.90
2023-04-24T18:58:37.523Z,58.63
2023-04-24T19:01:14.174Z,58.53
2023-04-24T19:03:46.265Z,59.25
2023-04-24T19:06:15.388Z,59.99
2023-04-24T19:08:47.618Z,59.29
2023-04-24T19:13:56.173Z,59.44
2023-04-24T19:16:28.127Z,57.90
2023-04-24T19:19:05.368Z,59.54
2023-04-24T19:21:38.113Z,57.76
2023-04-24T19:24:12.172Z,57.59
2023-04-24T19:26:49.105Z,58.60
2023-04-24T19:29:18.308Z,59.63
2023-04-24T19:31:48.207Z,59.58
2023-04-24T19:34:16.616Z,59.30
2023-04-24T19:36:47.154Z,59.24
2023-04-24T19:39:22.951Z,59.68
2023-04-24T19:41:50.352Z,59.43
2023-04-24T19:44:28.017Z,59.05
2023-04-24T19:47:03.323Z,60.13
2023-04-24T19:49:37.623Z,60.06
2023-04-24T19:52:13.176Z,59.18
2023-04-24T19:54:47.154Z,59.12
2023-04-24T19:57:15.336Z,59.08
2023-04-24T19:59:46.149Z,58.42
2023-04-24T20:02:18.246Z,58.81
2023-04-24T20:04:46.952Z,58.78
2023-04-24T20:07:17.023Z,57.88
2023-04-24T20:09:45.102Z,58.49
2023-04-24T20:12:16.666Z,58.39
2023-04-24T20:14:44.789Z,58.83
2023-04-24T20:17:14.350Z,59.04
2023-04-24T20:19:52.585Z,58.42
2023-04-24T20:22:26.930Z,59.38
2023-04-24T20:24:55.268Z,59.69
2023-04-24T20:27:36.864Z,59.42
2023-04-24T20:30:13.401Z,58.96
2023-04-24T20:32:44.974Z,60.36
2023-04-24T20:35:14.238Z,60.98
2023-04-24T20:37:55.044Z,61.22
2023-04-24T20:40:23.011Z,59.53
2023-04-24T20:42:56.717Z,59.46
2023-04-24T20:45:33.199Z,60.19
2023-04-24T20:48:05.082Z,60.17
2023-04-24T20:50:35.335Z,59.92
2023-04-24T20:53:05.041Z,60.67
2023-04-24T20:55:32.635Z,58.62
2023-04-24T20:58:00.584Z,59.62
2023-04-24T21:00:29.383Z,58.73
2023-04-24T21:02:58.346Z,58.76
2023-04-24T21:05:26.227Z,59.40
2023-04-24T21:07:57.865Z,59.77
2023-04-24T21:10:29.299Z,60.04
2023-04-24T21:12:57.904Z,60.43
2023-04-24T21:15:26.654Z,59.00
2023-04-24T21:17:55.286Z,59.29
2023-04-24T21:20:23.268Z,58.01
2023-04-24T21:22:52.893Z,60.94
2023-04-24T21:25:23.065Z,59.91
2023-04-24T21:28:03.142Z,58.53
2023-04-24T21:30:33.150Z,58.79
2023-04-24T21:33:02.984Z,59.63
2023-04-24T21:35:31.313Z,58.66
2023-04-24T21:37:59.001Z,58.22
2023-04-24T21:40:27.615Z,58.36
2023-04-24T21:42:55.018Z,58.09
2023-04-24T21:45:22.535Z,60.22
2023-04-24T21:47:53.957Z,58.86
2023-04-24T21:50:21.397Z,59.20
2023-04-24T21:52:49.396Z,58.68
2023-04-24T21:55:17.736Z,60.60
2023-04-24T21:57:45.047Z,60.34
2023-04-24T22:00:17.157Z,59.17
2023-04-24T22:02:46.240Z,58.24
2023-04-24T22:05:15.945Z,58.06
2023-04-24T22:07:49.136Z,58.37
2023-04-24T22:10:20.164Z,59.37
2023-04-24T22:12:48.225Z,58.92
2023-04-24T22:15:16.100Z,58.11
2023-04-24T22:17:45.036Z,58.19
2023-04-24T22:20:13.925Z,58.60
2023-04-24T22:22:41.673Z,58.81
2023-04-24T22:25:09.919Z,60.86
2023-04-24T22:27:38.147Z,60.47
2023-04-24T22:30:09.731Z,62.01
2023-04-24T22:32:37.527Z,61.05
2023-04-24T22:35:05.414Z,61.28
2023-04-24T22:37:33.209Z,60.10
2023-04-24T22:40:05.205Z,61.61
2023-04-24T22:42:32.863Z,61.08
2023-04-24T22:45:02.194Z,60.49
2023-04-24T22:47:30.119Z,61.34
2023-04-24T22:49:58.491Z,60.64
2023-04-24T22:52:30.580Z,59.97
2023-04-24T22:54:58.664Z,61.11
2023-04-24T22:57:26.009Z,60.84
2023-04-24T22:59:53.770Z,61.18
2023-04-24T23:02:22.326Z,60.61
2023-04-24T23:04:51.515Z,59.92
2023-04-24T23:07:19.102Z,60.52
2023-04-24T23:09:47.148Z,60.81
2023-04-24T23:12:14.443Z,61.25
2023-04-24T23:14:42.070Z,59.97
2023-04-24T23:17:10.176Z,60.30
2023-04-24T23:19:37.907Z,59.76
2023-04-24T23:22:05.385Z,59.56
2023-04-24T23:24:33.506Z,58.56
2023-04-24T23:27:02.170Z,60.63
2023-04-24T23:29:30.094Z,60.38
2023-04-24T23:32:05.217Z,58.21
2023-04-24T23:34:34.024Z,58.45
2023-04-24T23:37:02.103Z,58.04
2023-04-24T23:39:29.462Z,58.19
2023-04-24T23:41:58.680Z,59.22
2023-04-24T23:44:26.166Z,59.56
2023-04-24T23:46:53.536Z,58.29
2023-04-24T23:49:21.546Z,58.72
2023-04-24T23:51:50.242Z,59.28
2023-04-24T23:54:17.824Z,58.93
2023-04-24T23:56:46.868Z,59.06
2023-04-24T23:59:15.576Z,59.23
